Time;durP1;ratioP1;P1;durP2;ratioP2;P2;SDS_P1;SDS_P2;PMS_P1;PMS_P2;Temp;Humidity;BMP_temperature;BMP_pressure;BME280_temperature;BME280_humidity;BME280_pressure;Samples;Min_cycle;Max_cycle;Signal;HPM_P1;HPM_P2
2022/01/12 00:00:50;;;;;;;69.15;19.88;;;;;;;;;;5038395;28;20032;-59
2022/01/12 00:03:20;;;;;;;59.55;19.40;;;;;;;;;;5072364;28;20032;-59
2022/01/12 00:05:48;;;;;;;64.75;19.02;;;;;;;;;;5060452;28;23161;-59
2022/01/12 00:08:19;;;;;;;64.03;16.55;;;;;;;;;;5074986;28;20048;-59
2022/01/12 00:10:47;;;;;;;65.47;19.70;;;;;;;;;;5070607;28;20032;-59
2022/01/12 00:13:15;;;;;;;63.33;18.35;;;;;;;;;;5050907;28;21507;-59
2022/01/12 00:15:43;;;;;;;76.65;19.13;;;;;;;;;;5053589;28;20042;-59
2022/01/12 00:18:09;;;;;;;74.40;18.88;;;;;;;;;;5072185;28;20032;-59
2022/01/12 00:20:34;;;;;;;74.40;19.55;;;;;;;;;;5069852;28;20072;-60
2022/01/12 00:23:02;;;;;;;64.80;20.55;;;;;;;;;;5037989;28;20485;-60
2022/01/12 00:25:34;;;;;;;57.30;20.42;;;;;;;;;;5041505;27;20393;-59
2022/01/12 00:33:40;;;;;;;61.47;17.88;;;;;;;;;;5073424;27;21780;-58
2022/01/12 00:36:08;;;;;;;67.47;19.33;;;;;;;;;;5048832;28;20052;-59
2022/01/12 00:38:36;;;;;;;63.78;18.17;;;;;;;;;;5070025;27;20106;-60
2022/01/12 00:41:04;;;;;;;69.75;18.85;;;;;;;;;;5070946;28;22258;-59
2022/01/12 00:43:31;;;;;;;58.80;19.20;;;;;;;;;;5056940;28;20065;-59
2022/01/12 00:46:04;;;;;;;70.38;19.75;;;;;;;;;;5070651;28;20487;-60
2022/01/12 00:48:36;;;;;;;69.93;19.48;;;;;;;;;;5074238;28;20035;-60
2022/01/12 00:51:02;;;;;;;69.60;19.98;;;;;;;;;;5074604;28;20473;-59
2022/01/12 00:53:28;;;;;;;71.63;19.10;;;;;;;;;;5071401;28;20020;-59
2022/01/12 00:55:56;;;;;;;80.53;21.88;;;;;;;;;;5050814;28;20050;-60
2022/01/12 00:58:24;;;;;;;66.82;18.60;;;;;;;;;;5050028;28;20027;-59
2022/01/12 01:00:49;;;;;;;74.97;18.50;;;;;;;;;;5057810;28;20042;-59
2022/01/12 01:03:15;;;;;;;70.13;18.73;;;;;;;;;;5058245;28;20035;-60
2022/01/12 01:05:45;;;;;;;83.22;19.80;;;;;;;;;;5071161;28;21710;-60
2022/01/12 01:08:13;;;;;;;75.40;20.95;;;;;;;;;;5048958;28;20164;-59
2022/01/12 01:13:16;;;;;;;81.70;19.67;;;;;;;;;;5066922;28;20027;-59
2022/01/12 01:26:46;;;;;;;88.38;17.80;;;;;;;;;;5071414;28;20062;-59
2022/01/12 01:29:13;;;;;;;94.95;19.80;;;;;;;;;;5056047;28;20040;-59
2022/01/12 01:31:40;;;;;;;74.18;16.83;;;;;;;;;;5054645;28;20039;-58
2022/01/12 01:34:09;;;;;;;78.43;17.63;;;;;;;;;;5051805;28;20035;-60
2022/01/12 01:36:39;;;;;;;77.93;18.27;;;;;;;;;;5049008;28;20549;-58
2022/01/12 01:39:05;;;;;;;65.35;17.42;;;;;;;;;;5070566;28;20124;-60
2022/01/12 01:41:38;;;;;;;113.05;19.13;;;;;;;;;;5051370;28;20857;-60
2022/01/12 01:54:58;;;;;;;81.55;17.30;;;;;;;;;;5072613;28;20209;-58
2022/01/12 01:57:24;;;;;;;64.07;17.35;;;;;;;;;;5032247;28;20057;-59
2022/01/12 01:59:49;;;;;;;72.53;17.08;;;;;;;;;;5051783;28;20074;-59
2022/01/12 02:02:15;;;;;;;72.13;17.25;;;;;;;;;;5052449;28;20023;-59
2022/01/12 02:04:43;;;;;;;75.43;16.85;;;;;;;;;;5070990;28;20043;-60
2022/01/12 02:07:08;;;;;;;65.28;15.98;;;;;;;;;;5050283;28;20114;-59
2022/01/12 02:09:39;;;;;;;68.63;16.92;;;;;;;;;;5029798;28;20031;-59
2022/01/12 02:12:09;;;;;;;48.35;15.77;;;;;;;;;;5064591;28;20040;-59
2022/01/12 02:14:37;;;;;;;53.33;14.68;;;;;;;;;;5042083;28;20042;-59
2022/01/12 02:17:18;;;;;;;49.03;14.43;;;;;;;;;;5070684;28;20084;-59
2022/01/12 02:40:12;;;;;;;62.20;16.73;;;;;;;;;;5044255;28;20108;-61
2022/01/12 02:42:44;;;;;;;58.63;15.50;;;;;;;;;;5074865;28;20035;-60
2022/01/12 02:50:55;;;;;;;55.55;15.85;;;;;;;;;;5077337;28;20039;-60
2022/01/12 02:53:41;;;;;;;50.92;14.00;;;;;;;;;;5075836;28;20036;-59
2022/01/12 02:56:09;;;;;;;49.83;13.83;;;;;;;;;;5072681;28;20035;-59
2022/01/12 02:58:38;;;;;;;50.80;14.95;;;;;;;;;;5075841;28;20032;-60
2022/01/12 03:03:51;;;;;;;50.72;13.23;;;;;;;;;;5065093;28;20042;-60
2022/01/12 03:06:20;;;;;;;69.53;15.85;;;;;;;;;;5040788;28;20039;-60
2022/01/12 03:08:46;;;;;;;54.80;14.63;;;;;;;;;;5044307;28;20731;-60
2022/01/12 03:11:16;;;;;;;58.13;13.45;;;;;;;;;;5079636;28;20074;-60
2022/01/12 03:13:44;;;;;;;47.25;11.88;;;;;;;;;;5078748;27;20023;-59
2022/01/12 03:16:18;;;;;;;57.50;13.13;;;;;;;;;;5068378;28;20036;-60
2022/01/12 03:18:44;;;;;;;59.85;13.00;;;;;;;;;;5079610;28;20568;-59
2022/01/12 03:21:10;;;;;;;48.03;13.40;;;;;;;;;;5079826;28;20028;-59
2022/01/12 03:23:39;;;;;;;65.47;12.85;;;;;;;;;;5082006;28;20043;-59
2022/01/12 03:26:05;;;;;;;52.38;11.82;;;;;;;;;;5058538;28;20043;-60
2022/01/12 03:28:35;;;;;;;60.60;14.25;;;;;;;;;;5079179;28;20019;-59
2022/01/12 03:38:47;;;;;;;43.90;10.82;;;;;;;;;;5082798;28;20077;-59
2022/01/12 03:41:13;;;;;;;46.85;12.43;;;;;;;;;;5059354;28;20023;-59
2022/01/12 03:43:40;;;;;;;45.40;11.27;;;;;;;;;;5081049;28;20028;-59
2022/01/12 03:46:06;;;;;;;44.30;12.45;;;;;;;;;;5045882;28;20063;-59
2022/01/12 03:48:33;;;;;;;52.03;12.45;;;;;;;;;;5059769;28;20032;-59
2022/01/12 03:50:59;;;;;;;47.30;11.30;;;;;;;;;;5058481;28;20031;-60
2022/01/12 03:53:27;;;;;;;48.75;11.77;;;;;;;;;;5057412;28;20036;-60
2022/01/12 03:55:58;;;;;;;48.70;13.27;;;;;;;;;;5080131;28;20019;-58
2022/01/12 03:58:28;;;;;;;43.88;10.63;;;;;;;;;;5061260;28;20032;-59
2022/01/12 04:00:54;;;;;;;42.65;10.50;;;;;;;;;;5077327;28;20043;-59
2022/01/12 04:03:19;;;;;;;40.28;10.82;;;;;;;;;;5046575;28;20083;-60
2022/01/12 04:08:31;;;;;;;63.63;13.98;;;;;;;;;;5064864;28;20027;-59
2022/01/12 04:11:00;;;;;;;34.17;11.48;;;;;;;;;;5058796;28;20098;-59
2022/01/12 04:13:31;;;;;;;44.42;11.43;;;;;;;;;;5083860;28;20117;-59
2022/01/12 04:16:02;;;;;;;53.50;11.13;;;;;;;;;;5076462;28;20133;-61
2022/01/12 04:18:30;;;;;;;27.27;8.43;;;;;;;;;;5065688;28;20028;-60
2022/01/12 04:21:02;;;;;;;25.77;9.00;;;;;;;;;;5047788;28;20040;-61
2022/01/12 04:23:32;;;;;;;32.53;9.38;;;;;;;;;;5061933;28;20088;-58
2022/01/12 04:25:58;;;;;;;30.20;8.38;;;;;;;;;;5076726;28;20102;-59
2022/01/12 04:28:25;;;;;;;46.92;8.65;;;;;;;;;;5076626;28;20109;-59
2022/01/12 04:30:53;;;;;;;22.05;8.30;;;;;;;;;;5042030;28;20027;-58
2022/01/12 04:33:23;;;;;;;28.25;8.43;;;;;;;;;;5075842;28;20024;-60
2022/01/12 04:35:55;;;;;;;23.13;7.82;;;;;;;;;;5039129;28;20126;-59
2022/01/12 04:38:25;;;;;;;41.60;9.35;;;;;;;;;;5077891;28;20135;-59
2022/01/12 04:40:51;;;;;;;18.23;7.18;;;;;;;;;;5057768;28;20051;-58
2022/01/12 04:43:21;;;;;;;29.17;7.25;;;;;;;;;;5061455;28;20032;-59
2022/01/12 04:50:43;;;;;;;27.25;8.30;;;;;;;;;;5058330;28;20479;-59
2022/01/12 04:53:11;;;;;;;30.50;7.68;;;;;;;;;;5081600;28;20035;-59
2022/01/12 04:55:36;;;;;;;21.55;8.20;;;;;;;;;;5062681;28;20032;-59
2022/01/12 04:58:05;;;;;;;39.47;8.60;;;;;;;;;;5080393;28;20569;-59
2022/01/12 05:00:34;;;;;;;18.17;7.05;;;;;;;;;;5064706;28;20027;-59
2022/01/12 05:13:47;;;;;;;20.42;7.40;;;;;;;;;;5058923;28;20039;-59
2022/01/12 05:16:13;;;;;;;17.52;7.80;;;;;;;;;;5080843;28;20032;-59
2022/01/12 05:18:40;;;;;;;14.20;6.13;;;;;;;;;;5061399;28;20386;-60
2022/01/12 05:21:08;;;;;;;15.00;6.82;;;;;;;;;;5079533;28;20031;-60
2022/01/12 05:23:34;;;;;;;17.98;7.03;;;;;;;;;;5058774;28;20066;-59
2022/01/12 05:26:00;;;;;;;12.82;5.97;;;;;;;;;;5061368;28;20036;-59
2022/01/12 05:28:28;;;;;;;18.02;7.55;;;;;;;;;;5045025;28;21927;-60
2022/01/12 05:30:57;;;;;;;16.40;7.25;;;;;;;;;;5059361;28;20106;-59
2022/01/12 05:33:25;;;;;;;14.35;6.28;;;;;;;;;;5076075;27;20035;-59
2022/01/12 05:35:56;;;;;;;12.80;6.43;;;;;;;;;;5079862;28;21055;-60
2022/01/12 05:38:24;;;;;;;11.18;5.82;;;;;;;;;;5078715;28;20470;-60
2022/01/12 05:40:55;;;;;;;19.85;6.65;;;;;;;;;;5058534;28;20030;-59
2022/01/12 05:43:23;;;;;;;15.73;6.20;;;;;;;;;;5075835;28;20163;-59
2022/01/12 05:45:52;;;;;;;16.58;6.47;;;;;;;;;;5073046;28;20028;-58
2022/01/12 05:50:51;;;;;;;15.45;5.97;;;;;;;;;;5079777;28;20119;-59
2022/01/12 05:53:18;;;;;;;11.27;6.63;;;;;;;;;;5062538;28;20150;-59
2022/01/12 05:55:44;;;;;;;14.35;5.78;;;;;;;;;;5060808;28;20277;-60
2022/01/12 05:58:11;;;;;;;12.07;5.68;;;;;;;;;;5054667;28;20031;-60
2022/01/12 06:00:40;;;;;;;11.25;6.47;;;;;;;;;;5058604;28;20032;-59
2022/01/12 06:03:08;;;;;;;14.00;6.05;;;;;;;;;;5062049;28;20111;-59
2022/01/12 06:05:33;;;;;;;15.15;5.47;;;;;;;;;;5083632;28;20053;-59
2022/01/12 06:08:01;;;;;;;13.55;6.95;;;;;;;;;;5043333;28;20150;-60
2022/01/12 06:10:29;;;;;;;19.63;6.88;;;;;;;;;;5061337;28;20020;-60
2022/01/12 06:12:55;;;;;;;11.60;6.35;;;;;;;;;;5063745;28;20675;-59
2022/01/12 06:15:27;;;;;;;15.63;6.82;;;;;;;;;;5063555;28;20032;-60
2022/01/12 06:17:52;;;;;;;15.40;6.53;;;;;;;;;;5079907;28;20516;-59
2022/01/12 06:20:18;;;;;;;12.23;6.55;;;;;;;;;;5061262;28;21710;-59
2022/01/12 06:22:48;;;;;;;14.27;6.15;;;;;;;;;;5060123;28;20171;-58
2022/01/12 06:25:15;;;;;;;12.10;5.85;;;;;;;;;;5055941;28;20039;-59
2022/01/12 06:27:56;;;;;;;16.38;6.05;;;;;;;;;;5053532;28;21749;-59
2022/01/12 06:32:51;;;;;;;12.80;6.35;;;;;;;;;;5073622;28;20101;-60
2022/01/12 06:35:18;;;;;;;12.63;5.63;;;;;;;;;;5076539;28;20590;-59
2022/01/12 06:37:47;;;;;;;9.40;5.47;;;;;;;;;;5060375;28;20101;-59
2022/01/12 06:40:15;;;;;;;9.55;5.28;;;;;;;;;;5061271;28;20040;-59
2022/01/12 06:42:41;;;;;;;19.40;6.80;;;;;;;;;;5079274;28;20033;-58
2022/01/12 06:45:13;;;;;;;12.18;5.38;;;;;;;;;;5081300;28;20093;-59
2022/01/12 06:47:48;;;;;;;11.07;5.55;;;;;;;;;;5066030;28;20031;-59
2022/01/12 06:50:18;;;;;;;8.65;5.50;;;;;;;;;;5050841;28;20389;-59
2022/01/12 06:52:48;;;;;;;13.18;5.72;;;;;;;;;;5065074;28;20464;-59
2022/01/12 06:55:15;;;;;;;12.75;5.93;;;;;;;;;;5080854;27;20035;-59
2022/01/12 06:57:40;;;;;;;25.38;6.95;;;;;;;;;;5069200;28;20817;-58
2022/01/12 07:00:09;;;;;;;26.27;7.50;;;;;;;;;;5083764;28;20921;-58
2022/01/12 07:02:38;;;;;;;12.52;6.25;;;;;;;;;;5065138;28;20031;-58
2022/01/12 07:05:04;;;;;;;13.00;6.38;;;;;;;;;;5077988;28;20434;-57
2022/01/12 07:07:32;;;;;;;16.63;6.20;;;;;;;;;;5083098;28;20028;-58
2022/01/12 07:10:03;;;;;;;18.88;7.20;;;;;;;;;;5083719;28;20027;-58
2022/01/12 07:12:31;;;;;;;12.52;6.07;;;;;;;;;;5067388;28;20027;-58
2022/01/12 07:15:01;;;;;;;19.75;7.30;;;;;;;;;;5052975;28;20123;-58
2022/01/12 07:17:29;;;;;;;23.42;7.78;;;;;;;;;;5083049;27;20100;-58
2022/01/12 07:19:54;;;;;;;24.00;8.38;;;;;;;;;;5050621;28;20028;-58
2022/01/12 07:22:20;;;;;;;19.58;7.15;;;;;;;;;;5081814;28;20034;-58
2022/01/12 07:24:50;;;;;;;16.65;6.47;;;;;;;;;;5063303;28;20058;-58
2022/01/12 07:27:16;;;;;;;21.92;7.07;;;;;;;;;;5061925;28;20164;-58
2022/01/12 07:29:43;;;;;;;13.05;5.97;;;;;;;;;;5083702;28;20040;-59
2022/01/12 07:32:14;;;;;;;12.85;6.97;;;;;;;;;;5061694;28;20035;-58
2022/01/12 07:34:47;;;;;;;9.32;5.47;;;;;;;;;;5066804;28;20040;-59
2022/01/12 07:37:13;;;;;;;14.98;5.85;;;;;;;;;;5080795;28;20032;-58
2022/01/12 07:39:38;;;;;;;12.60;6.30;;;;;;;;;;5080765;28;20042;-59
2022/01/12 07:42:04;;;;;;;15.75;6.47;;;;;;;;;;5083490;28;20035;-58
2022/01/12 07:44:32;;;;;;;12.90;5.95;;;;;;;;;;5032302;28;20034;-58
2022/01/12 07:47:00;;;;;;;13.25;6.50;;;;;;;;;;5047500;28;21878;-58
2022/01/12 07:49:25;;;;;;;14.13;5.53;;;;;;;;;;5081869;27;20054;-58
2022/01/12 07:51:53;;;;;;;22.85;6.68;;;;;;;;;;5061832;28;20032;-59
2022/01/12 07:54:21;;;;;;;22.98;7.07;;;;;;;;;;5031436;28;21850;-59
2022/01/12 07:56:49;;;;;;;17.85;5.50;;;;;;;;;;5082864;27;20036;-58
2022/01/12 07:59:19;;;;;;;18.08;6.72;;;;;;;;;;5050719;28;20031;-58
2022/01/12 08:01:44;;;;;;;15.27;5.45;;;;;;;;;;5066331;28;20061;-58
2022/01/12 08:04:12;;;;;;;13.77;5.40;;;;;;;;;;5065416;28;20601;-59
2022/01/12 08:06:40;;;;;;;11.02;4.93;;;;;;;;;;5081810;28;20842;-58
2022/01/12 08:09:07;;;;;;;11.80;5.97;;;;;;;;;;5046886;28;20038;-58
2022/01/12 08:11:34;;;;;;;13.77;5.55;;;;;;;;;;5055631;28;20532;-57
2022/01/12 08:14:00;;;;;;;24.20;5.45;;;;;;;;;;5083329;28;20029;-58
2022/01/12 08:16:27;;;;;;;17.42;4.95;;;;;;;;;;5079422;27;20028;-59
2022/01/12 08:18:56;;;;;;;23.35;5.88;;;;;;;;;;5067597;28;20189;-58
2022/01/12 08:21:27;;;;;;;17.00;5.25;;;;;;;;;;5065255;28;20467;-59
2022/01/12 08:23:52;;;;;;;19.90;5.47;;;;;;;;;;5065446;28;20513;-59
2022/01/12 08:26:20;;;;;;;11.10;4.95;;;;;;;;;;5054293;28;20043;-59
2022/01/12 08:28:46;;;;;;;29.42;5.82;;;;;;;;;;5064544;28;20031;-58
2022/01/12 08:31:11;;;;;;;11.60;4.40;;;;;;;;;;5064556;28;20016;-59
2022/01/12 08:33:46;;;;;;;26.23;5.20;;;;;;;;;;5068469;28;20725;-58
2022/01/12 08:36:11;;;;;;;12.95;4.50;;;;;;;;;;5084081;28;20096;-58
2022/01/12 08:38:39;;;;;;;8.93;4.22;;;;;;;;;;5050332;28;20035;-59
2022/01/12 08:41:05;;;;;;;8.25;4.25;;;;;;;;;;5082052;27;20146;-58
2022/01/12 08:43:31;;;;;;;20.42;4.40;;;;;;;;;;5053309;27;20445;-58
2022/01/12 08:45:56;;;;;;;12.48;3.95;;;;;;;;;;5051432;28;20039;-58
2022/01/12 08:48:24;;;;;;;15.63;4.53;;;;;;;;;;5072107;28;20023;-58
2022/01/12 08:50:54;;;;;;;19.15;3.97;;;;;;;;;;5083268;28;21980;-59
2022/01/12 08:53:22;;;;;;;14.07;3.65;;;;;;;;;;5051491;28;20529;-58
2022/01/12 08:55:48;;;;;;;12.70;4.25;;;;;;;;;;5083793;28;20088;-58
2022/01/12 08:58:16;;;;;;;38.38;3.90;;;;;;;;;;5069025;28;20028;-58
2022/01/12 09:00:42;;;;;;;35.40;3.58;;;;;;;;;;5072033;28;21938;-59
2022/01/12 09:03:10;;;;;;;39.70;3.72;;;;;;;;;;5065512;28;20047;-60
2022/01/12 09:05:38;;;;;;;34.78;3.85;;;;;;;;;;5060791;28;20031;-60
2022/01/12 09:08:09;;;;;;;41.67;4.15;;;;;;;;;;5061672;28;20044;-58
2022/01/12 09:10:39;;;;;;;13.30;3.42;;;;;;;;;;5085196;28;20040;-58
2022/01/12 09:13:09;;;;;;;47.55;3.53;;;;;;;;;;5061154;28;20035;-59
2022/01/12 09:15:37;;;;;;;51.67;4.00;;;;;;;;;;5050348;28;20035;-58
2022/01/12 09:18:04;;;;;;;21.20;2.97;;;;;;;;;;5083411;28;20131;-58
2022/01/12 09:20:32;;;;;;;66.90;3.58;;;;;;;;;;5081301;28;20055;-59
2022/01/12 09:22:58;;;;;;;50.28;4.10;;;;;;;;;;5082451;28;21057;-60
2022/01/12 09:25:23;;;;;;;38.55;3.65;;;;;;;;;;5083487;28;20031;-59
2022/01/12 09:27:49;;;;;;;39.88;3.28;;;;;;;;;;5065489;28;20196;-59
2022/01/12 09:30:18;;;;;;;40.85;3.42;;;;;;;;;;5083622;28;20031;-59
2022/01/12 09:32:46;;;;;;;36.20;3.45;;;;;;;;;;5061255;28;20024;-58
2022/01/12 09:35:14;;;;;;;68.50;4.35;;;;;;;;;;5048312;28;20046;-58
2022/01/12 09:37:44;;;;;;;56.80;3.75;;;;;;;;;;5049061;28;20110;-59
2022/01/12 09:40:10;;;;;;;43.58;3.38;;;;;;;;;;5066113;28;20035;-58
2022/01/12 09:42:36;;;;;;;25.95;3.72;;;;;;;;;;5045910;28;20047;-59
2022/01/12 09:45:07;;;;;;;31.27;3.17;;;;;;;;;;5082387;28;20036;-59
2022/01/12 09:47:37;;;;;;;27.27;3.10;;;;;;;;;;5050895;28;20298;-60
2022/01/12 09:50:03;;;;;;;24.58;2.80;;;;;;;;;;5081522;28;20035;-59
2022/01/12 09:52:29;;;;;;;33.60;3.03;;;;;;;;;;5081566;28;20348;-61
2022/01/12 09:54:59;;;;;;;27.55;2.92;;;;;;;;;;5063629;28;20051;-59
2022/01/12 09:57:24;;;;;;;42.78;3.15;;;;;;;;;;5051492;28;20032;-58
2022/01/12 09:59:55;;;;;;;26.85;2.85;;;;;;;;;;5083573;28;20024;-58
2022/01/12 10:02:21;;;;;;;25.75;2.97;;;;;;;;;;5064615;28;20136;-60
2022/01/12 10:05:08;;;;;;;20.73;3.00;;;;;;;;;;5067033;28;20024;-59
2022/01/12 10:07:36;;;;;;;24.65;2.85;;;;;;;;;;5082298;28;20507;-59
2022/01/12 10:10:10;;;;;;;58.60;3.30;;;;;;;;;;5063946;28;20051;-59
2022/01/12 10:12:36;;;;;;;38.72;2.70;;;;;;;;;;5079609;28;20027;-59
2022/01/12 10:15:06;;;;;;;67.20;3.25;;;;;;;;;;5081417;28;20054;-60
2022/01/12 10:17:37;;;;;;;63.15;3.25;;;;;;;;;;5064541;28;20034;-61
2022/01/12 10:20:12;;;;;;;31.58;2.72;;;;;;;;;;5084822;28;20396;-59
2022/01/12 10:22:42;;;;;;;51.75;3.63;;;;;;;;;;5078516;28;20107;-58
2022/01/12 10:25:14;;;;;;;60.35;3.35;;;;;;;;;;5065029;28;20027;-59
2022/01/12 10:27:42;;;;;;;54.15;3.38;;;;;;;;;;5083603;28;20040;-59
2022/01/12 10:30:18;;;;;;;63.10;3.22;;;;;;;;;;5051288;28;20032;-59
2022/01/12 10:32:46;;;;;;;31.33;2.63;;;;;;;;;;5067013;28;20040;-59
2022/01/12 10:35:11;;;;;;;37.15;2.22;;;;;;;;;;5054423;28;20036;-59
2022/01/12 10:37:36;;;;;;;16.50;2.10;;;;;;;;;;5064795;28;20043;-58
2022/01/12 10:40:03;;;;;;;40.42;2.95;;;;;;;;;;5061596;28;20040;-58
2022/01/12 10:42:30;;;;;;;33.50;2.72;;;;;;;;;;5079197;28;20035;-59
2022/01/12 10:44:57;;;;;;;14.13;2.20;;;;;;;;;;5060386;28;20097;-59
2022/01/12 10:47:27;;;;;;;20.88;2.45;;;;;;;;;;5080842;28;20478;-59
2022/01/12 10:49:54;;;;;;;6.78;2.22;;;;;;;;;;5077919;28;20478;-59
2022/01/12 10:52:21;;;;;;;7.65;3.13;;;;;;;;;;5079917;28;20366;-59
2022/01/12 10:54:52;;;;;;;37.05;3.13;;;;;;;;;;5081270;28;20031;-59
2022/01/12 10:57:24;;;;;;;41.25;3.33;;;;;;;;;;5061484;28;20028;-59
2022/01/12 10:59:59;;;;;;;20.80;2.65;;;;;;;;;;5065098;28;20637;-60
2022/01/12 11:02:26;;;;;;;12.18;2.03;;;;;;;;;;5081013;28;20021;-59
2022/01/12 11:04:56;;;;;;;12.32;2.55;;;;;;;;;;5065362;28;20494;-59
2022/01/12 11:07:25;;;;;;;7.20;2.53;;;;;;;;;;5063612;28;20032;-59
2022/01/12 11:09:54;;;;;;;12.50;2.13;;;;;;;;;;5082558;28;20459;-59
2022/01/12 11:12:22;;;;;;;14.43;2.70;;;;;;;;;;5062466;28;20036;-59
2022/01/12 11:14:51;;;;;;;26.95;3.00;;;;;;;;;;5082369;28;20020;-59
2022/01/12 11:17:20;;;;;;;9.02;2.38;;;;;;;;;;5083441;28;20023;-60
2022/01/12 11:20:03;;;;;;;16.52;2.92;;;;;;;;;;5046880;28;20111;-60
2022/01/12 11:22:47;;;;;;;15.65;2.53;;;;;;;;;;5064380;28;20054;-59
2022/01/12 11:25:26;;;;;;;6.47;2.20;;;;;;;;;;5077981;28;20040;-59
2022/01/12 11:28:03;;;;;;;10.30;3.00;;;;;;;;;;5057567;28;20047;-60
2022/01/12 11:30:35;;;;;;;22.35;3.30;;;;;;;;;;5076667;28;21813;-59
2022/01/12 11:33:10;;;;;;;21.50;3.22;;;;;;;;;;5081928;27;20036;-59
2022/01/12 11:35:44;;;;;;;5.32;2.35;;;;;;;;;;5082922;27;20104;-59
2022/01/12 11:38:19;;;;;;;6.05;2.97;;;;;;;;;;5081300;28;22037;-59
2022/01/12 11:40:48;;;;;;;15.95;3.05;;;;;;;;;;5082136;27;20451;-60
2022/01/12 11:43:16;;;;;;;25.02;3.03;;;;;;;;;;5064439;28;20303;-59
2022/01/12 11:45:44;;;;;;;13.13;3.33;;;;;;;;;;5066291;28;21851;-59
2022/01/12 11:48:12;;;;;;;9.55;3.40;;;;;;;;;;5085540;27;20537;-59
2022/01/12 11:50:40;;;;;;;15.88;3.15;;;;;;;;;;5065509;28;20109;-59
2022/01/12 11:53:07;;;;;;;15.13;3.50;;;;;;;;;;5060651;27;20050;-59
2022/01/12 11:55:40;;;;;;;8.55;3.05;;;;;;;;;;5053601;28;20039;-59
2022/01/12 11:58:15;;;;;;;8.88;3.42;;;;;;;;;;5064352;28;20169;-59
2022/01/12 12:00:43;;;;;;;17.30;4.00;;;;;;;;;;5083341;27;20032;-59
2022/01/12 12:03:19;;;;;;;17.55;4.13;;;;;;;;;;5061900;28;20378;-59
2022/01/12 12:05:48;;;;;;;12.85;4.35;;;;;;;;;;5080972;28;20064;-59
2022/01/12 12:08:22;;;;;;;12.88;4.13;;;;;;;;;;5061778;28;20901;-60
2022/01/12 12:10:53;;;;;;;16.48;4.05;;;;;;;;;;5076605;28;20055;-60
2022/01/12 12:13:20;;;;;;;11.18;4.18;;;;;;;;;;5064010;27;20692;-60
2022/01/12 12:15:46;;;;;;;17.15;4.95;;;;;;;;;;5083145;28;20574;-59
2022/01/12 12:18:13;;;;;;;20.15;4.72;;;;;;;;;;5083961;28;20046;-59
2022/01/12 12:20:40;;;;;;;18.20;4.45;;;;;;;;;;5083876;28;20023;-59
2022/01/12 12:23:08;;;;;;;19.50;4.70;;;;;;;;;;5067308;28;21262;-59
2022/01/12 12:25:34;;;;;;;29.75;5.57;;;;;;;;;;5043921;28;20483;-59
2022/01/12 12:28:02;;;;;;;20.40;5.30;;;;;;;;;;5068023;28;20110;-59
2022/01/12 12:30:30;;;;;;;17.77;4.55;;;;;;;;;;5082419;28;20513;-59
2022/01/12 12:32:57;;;;;;;11.48;5.10;;;;;;;;;;5058916;28;20062;-60
2022/01/12 12:35:29;;;;;;;18.27;4.35;;;;;;;;;;5062295;28;20028;-59
2022/01/12 12:37:56;;;;;;;13.45;5.45;;;;;;;;;;5065385;28;20059;-59
2022/01/12 12:40:28;;;;;;;29.15;5.40;;;;;;;;;;5069994;28;20113;-60
2022/01/12 12:43:07;;;;;;;23.30;5.43;;;;;;;;;;5065186;28;20071;-60
2022/01/12 12:45:40;;;;;;;18.35;4.53;;;;;;;;;;5044312;28;20567;-60
2022/01/12 12:48:06;;;;;;;15.77;5.60;;;;;;;;;;5079336;28;20027;-60
2022/01/12 12:50:34;;;;;;;19.85;5.90;;;;;;;;;;5082145;28;21949;-59
2022/01/12 12:53:00;;;;;;;18.20;6.15;;;;;;;;;;5045436;27;20500;-59
2022/01/12 12:55:35;;;;;;;21.48;5.63;;;;;;;;;;5080120;27;20061;-59
2022/01/12 12:58:03;;;;;;;17.45;5.22;;;;;;;;;;5075769;28;20451;-60
2022/01/12 13:00:34;;;;;;;19.55;5.40;;;;;;;;;;5080506;28;20032;-60
2022/01/12 13:03:06;;;;;;;13.57;5.47;;;;;;;;;;5078701;28;20059;-60
2022/01/12 13:05:38;;;;;;;13.95;5.03;;;;;;;;;;5079072;28;20070;-60
2022/01/12 13:08:06;;;;;;;16.60;4.53;;;;;;;;;;5077612;27;20032;-60
2022/01/12 13:10:32;;;;;;;14.95;5.32;;;;;;;;;;5044269;28;20039;-60
2022/01/12 13:13:04;;;;;;;14.70;5.47;;;;;;;;;;5076717;27;20028;-59
2022/01/12 13:15:35;;;;;;;21.05;4.63;;;;;;;;;;5081510;28;20067;-60
2022/01/12 13:18:09;;;;;;;14.18;4.80;;;;;;;;;;5080874;28;20044;-59
2022/01/12 13:21:36;;;;;;;18.80;5.45;;;;;;;;;;5059293;28;20197;-59
2022/01/12 13:23:42;;;;;;;17.50;4.57;;;;;;;;;;5071630;28;20522;-59
2022/01/12 13:26:14;;;;;;;13.43;4.68;;;;;;;;;;5058627;28;20934;-60
2022/01/12 13:28:44;;;;;;;11.13;5.00;;;;;;;;;;5060248;28;20031;-59
2022/01/12 13:31:13;;;;;;;15.00;4.78;;;;;;;;;;5079742;28;20043;-60
2022/01/12 13:33:46;;;;;;;15.52;5.25;;;;;;;;;;5062058;28;20035;-59
2022/01/12 13:36:13;;;;;;;14.48;5.35;;;;;;;;;;5079316;27;20158;-58
2022/01/12 13:38:39;;;;;;;18.45;4.80;;;;;;;;;;5077555;27;20023;-59
2022/01/12 13:41:11;;;;;;;16.50;4.47;;;;;;;;;;5064230;28;20043;-60
2022/01/12 13:43:37;;;;;;;20.90;5.15;;;;;;;;;;5080642;28;20046;-60
2022/01/12 13:46:11;;;;;;;15.30;5.50;;;;;;;;;;5061533;28;20764;-59
2022/01/12 13:49:05;;;;;;;19.90;4.80;;;;;;;;;;5082642;28;21617;-59
2022/01/12 13:51:37;;;;;;;18.48;5.50;;;;;;;;;;5081055;28;20032;-59
2022/01/12 13:54:07;;;;;;;13.25;4.65;;;;;;;;;;5079556;28;20031;-60
2022/01/12 13:56:43;;;;;;;15.18;5.65;;;;;;;;;;5047544;28;20043;-60
2022/01/12 13:59:15;;;;;;;12.73;5.53;;;;;;;;;;5073031;28;20083;-60
2022/01/12 14:01:44;;;;;;;21.80;5.72;;;;;;;;;;5080347;28;20530;-60
2022/01/12 14:04:23;;;;;;;20.48;5.97;;;;;;;;;;5040771;28;20028;-60
2022/01/12 14:06:51;;;;;;;20.25;5.75;;;;;;;;;;5062105;28;20042;-59
2022/01/12 14:09:34;;;;;;;23.83;5.53;;;;;;;;;;5081462;28;20042;-59
2022/01/12 14:12:16;;;;;;;12.63;5.22;;;;;;;;;;5079536;28;20035;-59
2022/01/12 14:14:53;;;;;;;23.98;6.68;;;;;;;;;;5064802;28;20040;-59
2022/01/12 14:17:25;;;;;;;14.15;5.90;;;;;;;;;;5064712;28;20030;-61
2022/01/12 14:19:57;;;;;;;27.70;6.05;;;;;;;;;;5081336;28;20125;-59
2022/01/12 14:22:23;;;;;;;24.73;6.30;;;;;;;;;;5062157;28;20868;-59
2022/01/12 14:25:03;;;;;;;23.23;5.32;;;;;;;;;;5064544;28;20471;-59
2022/01/12 14:27:56;;;;;;;15.07;4.88;;;;;;;;;;5078113;28;20136;-59
2022/01/12 14:30:23;;;;;;;16.35;5.65;;;;;;;;;;5060842;28;20572;-59
2022/01/12 14:32:52;;;;;;;24.83;5.90;;;;;;;;;;5061963;28;20106;-59
2022/01/12 14:35:21;;;;;;;24.35;6.35;;;;;;;;;;5050222;28;20047;-59
2022/01/12 14:37:47;;;;;;;18.55;5.93;;;;;;;;;;5060895;28;20803;-59
2022/01/12 14:40:15;;;;;;;19.30;6.53;;;;;;;;;;5062268;28;20036;-59
2022/01/12 14:42:41;;;;;;;18.38;7.15;;;;;;;;;;5076726;28;20054;-59
2022/01/12 14:45:08;;;;;;;19.30;7.13;;;;;;;;;;5078915;28;20031;-59
2022/01/12 14:47:36;;;;;;;25.85;6.15;;;;;;;;;;5078282;28;20023;-59
2022/01/12 14:50:03;;;;;;;19.45;6.07;;;;;;;;;;5078258;28;21916;-59
2022/01/12 14:52:31;;;;;;;17.52;6.88;;;;;;;;;;5079595;28;20035;-59
2022/01/12 14:54:59;;;;;;;24.75;7.30;;;;;;;;;;5060049;28;20200;-59
2022/01/12 14:57:25;;;;;;;18.30;7.28;;;;;;;;;;5079017;28;20076;-60
2022/01/12 14:59:57;;;;;;;29.33;6.60;;;;;;;;;;5082462;28;20039;-59
2022/01/12 15:02:28;;;;;;;31.40;6.90;;;;;;;;;;5059504;28;20536;-59
2022/01/12 15:04:56;;;;;;;21.30;6.30;;;;;;;;;;5070412;27;20569;-60
2022/01/12 15:07:24;;;;;;;22.38;7.05;;;;;;;;;;5082804;28;20032;-59
2022/01/12 15:09:52;;;;;;;25.35;6.53;;;;;;;;;;5084919;28;20031;-59
2022/01/12 15:12:25;;;;;;;27.00;6.55;;;;;;;;;;5065737;28;20174;-59
2022/01/12 15:14:58;;;;;;;41.20;7.97;;;;;;;;;;5052812;28;20111;-59
2022/01/12 15:17:28;;;;;;;20.13;6.22;;;;;;;;;;5050661;28;20486;-60
2022/01/12 15:19:53;;;;;;;22.45;5.90;;;;;;;;;;5084445;28;20028;-60
2022/01/12 15:22:18;;;;;;;25.35;6.85;;;;;;;;;;5068977;28;20086;-59
2022/01/12 15:24:46;;;;;;;24.88;7.53;;;;;;;;;;5068961;28;20020;-59
2022/01/12 15:27:12;;;;;;;37.95;7.28;;;;;;;;;;5062771;28;20264;-59
2022/01/12 15:29:40;;;;;;;21.65;6.35;;;;;;;;;;5080696;28;20032;-59
2022/01/12 15:32:06;;;;;;;26.88;7.43;;;;;;;;;;5048323;28;20480;-59
2022/01/12 15:34:31;;;;;;;18.92;6.70;;;;;;;;;;5082759;28;20032;-60
2022/01/12 15:37:00;;;;;;;31.35;7.20;;;;;;;;;;5081742;27;21052;-60
2022/01/12 15:39:28;;;;;;;26.95;7.38;;;;;;;;;;5083024;28;20078;-60
2022/01/12 15:41:53;;;;;;;20.75;6.35;;;;;;;;;;5056894;28;20565;-60
2022/01/12 15:44:21;;;;;;;21.42;6.88;;;;;;;;;;5053346;28;20054;-60
2022/01/12 15:46:48;;;;;;;26.23;6.60;;;;;;;;;;5063637;28;20736;-60
2022/01/12 15:49:13;;;;;;;30.52;8.00;;;;;;;;;;5072274;28;20504;-59
2022/01/12 15:51:39;;;;;;;25.88;7.22;;;;;;;;;;5069385;28;20019;-59
2022/01/12 15:54:06;;;;;;;41.67;9.50;;;;;;;;;;5085230;28;20101;-60
2022/01/12 15:56:34;;;;;;;32.45;7.93;;;;;;;;;;5081477;28;21116;-59
2022/01/12 15:59:03;;;;;;;31.65;8.63;;;;;;;;;;5081707;27;20035;-60
2022/01/12 16:01:29;;;;;;;27.23;7.30;;;;;;;;;;5067762;28;20042;-61
2022/01/12 16:03:55;;;;;;;32.08;8.10;;;;;;;;;;5080788;28;20035;-58
2022/01/12 16:06:23;;;;;;;38.50;9.18;;;;;;;;;;5081306;27;20763;-59
2022/01/12 16:08:51;;;;;;;36.15;9.13;;;;;;;;;;5062004;28;20042;-59